Time;durP1;ratioP1;P1;durP2;ratioP2;P2;SDS_P1;SDS_P2;PMS_P1;PMS_P2;Temp;Humidity;BMP_temperature;BMP_pressure;BME280_temperature;BME280_humidity;BME280_pressure;Samples;Min_cycle;Max_cycle;Signal;HPM_P1;HPM_P2
2021/08/31 18:00:03;;;;;;;15.45;10.45;;;18.60;93.90;;;;;;5091374;28;20370;-82
2021/08/31 18:02:29;;;;;;;39.42;30.65;;;18.60;95.80;;;;;;5089564;28;20064;-83
2021/08/31 18:04:55;;;;;;;48.80;37.15;;;18.60;96.80;;;;;;5091035;28;20056;-80
2021/08/31 18:07:21;;;;;;;26.92;20.42;;;18.70;97.50;;;;;;5089587;28;20025;-81
2021/08/31 18:09:46;;;;;;;18.80;14.35;;;18.70;98.10;;;;;;5089554;28;20136;-81
2021/08/31 18:12:12;;;;;;;16.95;12.55;;;18.70;98.40;;;;;;5091281;28;20016;-81
2021/08/31 18:14:38;;;;;;;18.63;11.48;;;18.80;98.80;;;;;;5090994;28;20386;-79
2021/08/31 18:17:03;;;;;;;17.02;10.55;;;18.90;99.00;;;;;;5090321;28;20421;-80
2021/08/31 18:19:30;;;;;;;20.25;13.77;;;18.90;99.10;;;;;;5088438;28;20056;-80
2021/08/31 18:21:56;;;;;;;52.42;37.30;;;19.00;99.20;;;;;;5089865;28;20070;-80
2021/08/31 18:24:22;;;;;;;18.42;12.27;;;19.00;99.30;;;;;;5089822;28;20017;-82
2021/08/31 18:26:48;;;;;;;18.20;11.48;;;19.10;99.30;;;;;;5088405;28;20024;-81
2021/08/31 18:29:13;;;;;;;16.65;10.82;;;19.10;99.20;;;;;;5088376;28;20054;-81
2021/08/31 18:31:39;;;;;;;20.55;11.85;;;19.10;99.10;;;;;;5088317;28;20174;-81
2021/08/31 18:34:05;;;;;;;22.23;12.43;;;19.10;99.10;;;;;;5089509;28;20031;-81
2021/08/31 18:36:30;;;;;;;16.80;10.73;;;19.20;99.10;;;;;;5088308;28;20024;-82
2021/08/31 18:38:56;;;;;;;17.38;12.20;;;19.20;99.00;;;;;;5089445;28;20099;-81
2021/08/31 18:41:22;;;;;;;18.98;12.35;;;19.10;98.90;;;;;;5089450;28;20025;-82
2021/08/31 18:43:47;;;;;;;22.35;12.98;;;19.20;98.90;;;;;;5089468;28;20023;-81
2021/08/31 18:46:13;;;;;;;21.73;12.82;;;19.20;98.90;;;;;;5089235;28;20470;-81
2021/08/31 18:48:40;;;;;;;21.40;12.27;;;19.10;98.90;;;;;;5089286;28;20038;-84
2021/08/31 18:51:07;;;;;;;20.58;11.88;;;19.10;98.90;;;;;;5089394;28;20456;-84
2021/08/31 18:53:34;;;;;;;17.23;11.38;;;19.10;98.80;;;;;;5088106;28;20028;-81
2021/08/31 18:56:00;;;;;;;24.05;13.23;;;19.10;98.80;;;;;;5089438;28;20363;-84
2021/08/31 18:58:26;;;;;;;19.40;11.77;;;19.10;98.80;;;;;;5088431;28;20048;-84
2021/08/31 19:00:52;;;;;;;19.33;11.15;;;19.00;98.80;;;;;;5088483;28;20110;-83
2021/08/31 19:03:17;;;;;;;18.52;12.38;;;19.00;98.80;;;;;;5088669;28;20024;-81
2021/08/31 19:05:45;;;;;;;16.77;11.45;;;19.00;98.80;;;;;;5089855;28;20017;-83
2021/08/31 19:08:12;;;;;;;17.90;12.23;;;19.00;98.90;;;;;;5089897;28;20115;-82
2021/08/31 19:10:38;;;;;;;18.30;12.20;;;19.00;99.00;;;;;;5080621;28;20028;-82
2021/08/31 19:13:04;;;;;;;16.58;11.57;;;18.90;99.00;;;;;;5076306;28;20021;-82
2021/08/31 19:15:31;;;;;;;15.68;10.93;;;18.90;99.30;;;;;;5076103;28;20035;-82
2021/08/31 19:17:57;;;;;;;17.48;10.85;;;18.90;99.30;;;;;;5074787;28;20062;-82
2021/08/31 19:20:23;;;;;;;16.33;10.40;;;18.80;99.30;;;;;;5074844;28;20067;-82
2021/08/31 19:22:48;;;;;;;18.35;10.07;;;18.80;99.20;;;;;;5076116;28;20008;-82
2021/08/31 19:25:14;;;;;;;28.02;15.60;;;18.80;99.30;;;;;;5074740;28;20025;-83
2021/08/31 19:27:40;;;;;;;23.50;15.60;;;18.80;99.30;;;;;;5075879;28;20457;-79
2021/08/31 19:30:07;;;;;;;516.08;374.75;;;18.80;99.40;;;;;;5074544;28;20378;-82
2021/08/31 19:32:33;;;;;;;97.13;67.30;;;18.70;99.50;;;;;;5074614;28;20020;-88
2021/08/31 19:34:58;;;;;;;42.55;29.30;;;18.70;99.60;;;;;;5074706;28;20016;-84
2021/08/31 19:37:24;;;;;;;62.78;43.88;;;18.70;99.70;;;;;;5074579;28;20044;-81
2021/08/31 19:39:50;;;;;;;26.92;18.38;;;18.70;99.70;;;;;;5075717;28;20377;-82
2021/08/31 19:42:16;;;;;;;43.95;28.13;;;18.70;99.70;;;;;;5076015;28;20033;-81
2021/08/31 19:44:42;;;;;;;32.45;24.52;;;18.70;99.80;;;;;;5076135;28;20017;-78
2021/08/31 19:47:08;;;;;;;17.75;12.20;;;18.70;99.90;;;;;;5086692;28;20046;-82
2021/08/31 19:49:34;;;;;;;14.05;11.13;;;18.60;99.90;;;;;;5094593;28;20024;-84
2021/08/31 19:51:59;;;;;;;12.90;9.30;;;18.60;99.90;;;;;;5096254;28;20035;-80
2021/08/31 19:54:25;;;;;;;27.65;20.25;;;18.60;99.90;;;;;;5074669;28;20025;-80
2021/08/31 19:56:51;;;;;;;16.67;12.68;;;18.60;99.90;;;;;;5074207;28;20471;-79
2021/08/31 19:59:16;;;;;;;19.73;13.10;;;18.60;99.90;;;;;;5073745;28;20099;-80
2021/08/31 20:01:44;;;;;;;16.55;10.48;;;18.60;99.90;;;;;;5075375;28;20025;-80
2021/08/31 20:04:10;;;;;;;14.77;11.60;;;18.50;99.90;;;;;;5074123;28;20023;-81
2021/08/31 20:06:36;;;;;;;11.35;9.13;;;18.50;99.90;;;;;;5073687;28;20530;-80
2021/08/31 20:09:03;;;;;;;13.65;9.15;;;18.50;99.90;;;;;;5073965;28;20086;-80
2021/08/31 20:11:29;;;;;;;17.58;12.93;;;18.50;99.90;;;;;;5075206;28;20031;-79
2021/08/31 20:13:55;;;;;;;20.10;14.80;;;18.50;99.90;;;;;;5074652;28;20360;-78
2021/08/31 20:16:21;;;;;;;18.35;13.25;;;18.40;99.90;;;;;;5074656;28;20020;-82
2021/08/31 20:18:47;;;;;;;27.98;20.20;;;18.40;99.90;;;;;;5073370;28;20175;-80
2021/08/31 20:21:13;;;;;;;14.55;10.20;;;18.40;99.90;;;;;;5073157;28;20537;-81
2021/08/31 20:23:38;;;;;;;16.33;8.77;;;18.30;99.90;;;;;;5073400;28;20115;-80
2021/08/31 20:26:04;;;;;;;15.95;9.20;;;18.30;99.90;;;;;;5073720;28;20036;-81
2021/08/31 20:28:30;;;;;;;12.43;9.05;;;18.30;99.90;;;;;;5074857;28;20032;-81
2021/08/31 20:30:55;;;;;;;11.82;8.75;;;18.30;99.90;;;;;;5073878;28;20028;-81
2021/08/31 20:33:21;;;;;;;11.30;9.50;;;18.20;99.90;;;;;;5072756;28;20542;-80
2021/08/31 20:35:47;;;;;;;53.17;35.97;;;18.20;99.90;;;;;;5074652;28;20028;-81
2021/08/31 20:38:13;;;;;;;24.48;17.67;;;18.20;99.90;;;;;;5074714;28;20387;-80
2021/08/31 20:40:39;;;;;;;18.40;13.77;;;18.20;99.90;;;;;;5074661;28;20087;-82
2021/08/31 20:43:04;;;;;;;15.23;10.23;;;18.20;99.90;;;;;;5073335;28;20029;-80
2021/08/31 20:45:30;;;;;;;14.32;10.07;;;18.10;99.90;;;;;;5075026;28;20025;-79
2021/08/31 20:47:56;;;;;;;15.18;8.48;;;18.10;99.90;;;;;;5074349;28;20154;-85
2021/08/31 20:50:22;;;;;;;16.88;8.95;;;18.10;99.90;;;;;;5073457;28;20028;-84
2021/08/31 20:52:47;;;;;;;10.25;8.20;;;18.10;99.90;;;;;;5074520;28;20021;-81
2021/08/31 20:55:14;;;;;;;9.23;6.70;;;18.00;99.90;;;;;;5074431;28;20471;-84
2021/08/31 20:57:40;;;;;;;8.07;6.30;;;18.10;99.90;;;;;;5074082;28;20089;-84
2021/08/31 21:00:08;;;;;;;10.07;7.75;;;18.00;99.90;;;;;;5072894;28;20108;-84
2021/08/31 21:02:35;;;;;;;7.03;6.22;;;18.00;99.90;;;;;;5073264;28;20486;-85
2021/08/31 21:05:00;;;;;;;9.00;6.85;;;18.00;99.90;;;;;;5074404;28;20031;-85
2021/08/31 21:07:26;;;;;;;9.18;6.88;;;18.00;99.90;;;;;;5072912;28;20020;-85
2021/08/31 21:09:57;;;;;;;11.40;6.93;;;18.00;99.90;;;;;;5074164;28;20103;-86
2021/08/31 21:12:23;;;;;;;8.85;6.30;;;18.00;99.90;;;;;;5074185;28;20028;-87
2021/08/31 21:14:48;;;;;;;9.13;6.88;;;17.90;99.90;;;;;;5072818;28;20356;-87
2021/08/31 21:17:14;;;;;;;7.93;6.38;;;17.90;99.90;;;;;;5074331;28;20138;-87
2021/08/31 21:19:40;;;;;;;9.75;6.40;;;17.90;99.90;;;;;;5072765;28;20097;-84
2021/08/31 21:22:05;;;;;;;315.92;263.83;;;17.80;99.90;;;;;;5074055;28;20469;-86
2021/08/31 21:24:31;;;;;;;38.10;31.45;;;17.80;99.90;;;;;;5073996;28;20355;-84
2021/08/31 21:26:57;;;;;;;30.67;25.42;;;17.80;99.90;;;;;;5072408;28;20035;-84
2021/08/31 21:29:22;;;;;;;13.07;10.13;;;17.80;99.90;;;;;;5072564;28;20033;-84
2021/08/31 21:31:49;;;;;;;10.32;8.65;;;17.70;99.90;;;;;;5072732;28;20024;-85
2021/08/31 21:34:14;;;;;;;11.23;7.47;;;17.80;99.90;;;;;;5072110;28;20111;-84
2021/08/31 21:36:40;;;;;;;9.80;6.38;;;17.70;99.90;;;;;;5071938;28;20048;-84
2021/08/31 21:39:06;;;;;;;7.68;5.60;;;17.70;99.90;;;;;;5072436;28;20021;-85
2021/08/31 21:41:31;;;;;;;6.30;5.47;;;17.70;99.90;;;;;;5072580;28;20070;-84
2021/08/31 21:43:57;;;;;;;6.50;5.63;;;17.70;99.90;;;;;;5072283;28;20104;-84
2021/08/31 21:46:22;;;;;;;7.57;4.93;;;17.70;99.90;;;;;;5073829;28;20039;-84
2021/08/31 21:48:48;;;;;;;7.47;5.38;;;17.60;99.90;;;;;;5072432;28;20089;-84
2021/08/31 21:51:14;;;;;;;5.82;5.22;;;17.60;99.90;;;;;;5072265;28;20036;-84
2021/08/31 21:53:39;;;;;;;6.88;5.20;;;17.50;99.90;;;;;;5072283;28;20032;-85
2021/08/31 21:56:05;;;;;;;7.00;5.07;;;17.50;99.90;;;;;;5072398;28;20059;-84
2021/08/31 21:58:31;;;;;;;8.00;5.75;;;17.50;99.90;;;;;;5072026;28;20597;-84
2021/08/31 22:00:56;;;;;;;5.97;5.38;;;17.50;99.90;;;;;;5072368;28;20382;-84
2021/08/31 22:03:22;;;;;;;8.13;5.93;;;17.50;99.90;;;;;;5073614;28;20059;-84
2021/08/31 22:05:48;;;;;;;9.95;5.93;;;17.50;99.90;;;;;;5072295;28;20593;-84
2021/08/31 22:08:13;;;;;;;6.43;5.53;;;17.40;99.90;;;;;;5072178;28;20028;-84
2021/08/31 22:10:39;;;;;;;7.30;5.93;;;17.40;99.90;;;;;;5073429;28;20107;-85
2021/08/31 22:13:05;;;;;;;9.20;6.07;;;17.40;99.90;;;;;;5072162;28;20120;-85
2021/08/31 22:15:34;;;;;;;6.93;5.63;;;17.40;99.90;;;;;;5072176;28;20383;-85
2021/08/31 22:18:00;;;;;;;7.97;5.70;;;17.40;99.90;;;;;;5072084;28;20111;-84
2021/08/31 22:20:26;;;;;;;6.80;6.05;;;17.30;99.90;;;;;;5073398;28;20672;-84
2021/08/31 22:22:51;;;;;;;8.45;6.10;;;17.30;99.90;;;;;;5072127;28;20458;-85
2021/08/31 22:25:17;;;;;;;6.78;5.47;;;17.30;99.90;;;;;;5071855;28;20051;-84
2021/08/31 22:27:43;;;;;;;7.10;5.88;;;17.30;99.90;;;;;;5073295;28;20035;-85
2021/08/31 22:30:09;;;;;;;9.40;5.80;;;17.20;99.90;;;;;;5073294;28;20029;-85
2021/08/31 22:32:35;;;;;;;11.27;5.72;;;17.30;99.90;;;;;;5072017;28;20031;-84
2021/08/31 22:35:02;;;;;;;10.13;5.80;;;17.20;99.90;;;;;;5071840;28;20052;-84
2021/08/31 22:37:27;;;;;;;8.32;5.28;;;17.20;99.90;;;;;;5071984;28;20074;-84
2021/08/31 22:39:53;;;;;;;5.90;5.30;;;17.20;99.90;;;;;;5071815;28;20029;-84
2021/08/31 22:42:19;;;;;;;6.97;5.18;;;17.20;99.90;;;;;;5071884;28;20490;-84
2021/08/31 22:44:44;;;;;;;6.40;5.40;;;17.10;99.90;;;;;;5072234;28;20031;-85
2021/08/31 22:47:10;;;;;;;6.50;5.30;;;17.10;99.90;;;;;;5075575;28;20032;-84
2021/08/31 22:49:36;;;;;;;6.95;5.10;;;17.20;99.90;;;;;;5075545;28;20031;-85
2021/08/31 22:52:02;;;;;;;7.43;5.18;;;17.10;99.90;;;;;;5075746;28;20021;-85
2021/08/31 22:54:28;;;;;;;5.20;4.70;;;17.10;99.90;;;;;;5075316;28;20024;-85
2021/08/31 22:56:53;;;;;;;8.40;5.75;;;17.10;99.90;;;;;;5075512;28;20059;-85
2021/08/31 22:59:20;;;;;;;7.00;5.32;;;17.00;99.90;;;;;;5076399;28;20094;-85
2021/08/31 23:01:46;;;;;;;7.22;5.60;;;17.00;99.90;;;;;;5076688;28;20019;-85
2021/08/31 23:04:13;;;;;;;6.70;4.97;;;17.00;99.90;;;;;;5076612;28;20020;-84
2021/08/31 23:06:38;;;;;;;8.90;5.40;;;17.00;99.90;;;;;;5075328;28;20016;-85
2021/08/31 23:09:04;;;;;;;5.43;4.88;;;16.90;99.90;;;;;;5075213;28;20036;-85
2021/08/31 23:11:30;;;;;;;6.63;5.32;;;16.90;99.90;;;;;;5075216;28;20021;-85
2021/08/31 23:13:55;;;;;;;8.85;5.43;;;16.90;99.90;;;;;;5076477;28;20036;-85
2021/08/31 23:16:21;;;;;;;8.68;5.50;;;16.90;99.90;;;;;;5075194;28;20021;-84
2021/08/31 23:18:47;;;;;;;8.57;5.40;;;16.90;99.90;;;;;;5075124;28;20028;-85
2021/08/31 23:21:13;;;;;;;8.93;5.60;;;16.90;99.90;;;;;;5075097;28;20059;-85
2021/08/31 23:23:39;;;;;;;6.10;4.97;;;16.80;99.90;;;;;;5076315;28;20099;-85
2021/08/31 23:26:04;;;;;;;7.47;5.53;;;16.90;99.90;;;;;;5076566;28;20056;-85
2021/08/31 23:28:30;;;;;;;8.73;5.47;;;16.90;99.90;;;;;;5076119;28;20387;-85
2021/08/31 23:30:56;;;;;;;7.72;5.40;;;16.80;99.90;;;;;;5074858;28;20103;-85
2021/08/31 23:33:22;;;;;;;7.50;5.80;;;16.80;99.90;;;;;;5076203;28;20466;-85
2021/08/31 23:35:47;;;;;;;6.40;5.80;;;16.80;99.90;;;;;;5074733;28;20024;-85
2021/08/31 23:38:13;;;;;;;6.00;5.40;;;16.80;99.90;;;;;;5075900;28;20103;-85
2021/08/31 23:40:39;;;;;;;6.35;5.75;;;16.70;99.90;;;;;;5074686;28;20016;-84
2021/08/31 23:43:04;;;;;;;6.18;5.57;;;16.70;99.90;;;;;;5075948;28;20107;-85
2021/08/31 23:45:30;;;;;;;8.65;5.57;;;16.70;99.90;;;;;;5074629;28;20021;-85
2021/08/31 23:47:56;;;;;;;6.90;5.78;;;16.70;99.90;;;;;;5074594;28;20021;-85
2021/08/31 23:50:21;;;;;;;8.77;6.20;;;16.70;99.90;;;;;;5074552;28;20421;-85
2021/08/31 23:52:47;;;;;;;7.80;5.88;;;16.60;99.90;;;;;;5074363;28;20124;-85
2021/08/31 23:55:13;;;;;;;6.68;5.85;;;16.60;99.90;;;;;;5075710;28;20025;-85
2021/08/31 23:57:38;;;;;;;7.15;6.05;;;16.60;99.90;;;;;;5074068;28;20074;-85
